createdAt,value
2018-02-13T00:02:13.689Z,9.05
2018-02-13T00:04:41.806Z,8.68
2018-02-13T00:07:09.955Z,8.57
2018-02-13T00:09:38.844Z,9.80
2018-02-13T00:12:07.000Z,14.55
2018-02-13T00:14:35.133Z,10.85
2018-02-13T00:17:03.293Z,10.27
2018-02-13T00:19:31.416Z,10.70
2018-02-13T00:21:59.569Z,11.73
2018-02-13T00:24:27.704Z,17.08
2018-02-13T00:26:55.874Z,19.20
2018-02-13T00:29:24.014Z,14.10
2018-02-13T00:31:52.186Z,15.98
2018-02-13T00:34:20.328Z,14.68
2018-02-13T00:36:48.524Z,14.80
2018-02-13T00:39:16.658Z,18.85
2018-02-13T00:41:44.822Z,16.15
2018-02-13T00:44:12.959Z,15.30
2018-02-13T00:46:41.113Z,17.60
2018-02-13T00:49:09.241Z,21.23
2018-02-13T00:51:37.412Z,15.05
2018-02-13T00:54:05.544Z,21.75
2018-02-13T00:56:33.703Z,20.02
2018-02-13T00:59:01.834Z,17.02
2018-02-13T01:01:29.992Z,17.48
2018-02-13T01:03:58.888Z,21.92
2018-02-13T01:06:27.045Z,20.92
2018-02-13T01:08:55.181Z,17.52
2018-02-13T01:11:23.337Z,20.65
2018-02-13T01:13:51.468Z,17.77
2018-02-13T01:16:19.625Z,21.58
2018-02-13T01:18:47.757Z,19.35
2018-02-13T01:21:15.912Z,19.58
2018-02-13T01:23:44.045Z,23.70
2018-02-13T01:26:12.201Z,24.00
2018-02-13T01:28:40.328Z,22.02
2018-02-13T01:31:08.494Z,28.27
2018-02-13T01:33:36.625Z,19.20
2018-02-13T01:36:04.789Z,19.52
2018-02-13T01:38:32.919Z,16.52
2018-02-13T01:41:01.823Z,14.18
2018-02-13T01:43:29.985Z,16.95
2018-02-13T01:45:58.125Z,20.08
2018-02-13T01:48:26.289Z,20.62
2018-02-13T01:50:54.417Z,20.70
2018-02-13T01:53:22.582Z,17.55
2018-02-13T01:55:50.718Z,17.35
2018-02-13T01:58:18.885Z,19.52
2018-02-13T02:00:47.019Z,14.60
2018-02-13T02:03:15.173Z,14.70
2018-02-13T02:05:44.065Z,16.90
2018-02-13T02:08:12.216Z,19.10
2018-02-13T02:10:41.119Z,14.40
2018-02-13T02:13:09.259Z,10.95
2018-02-13T02:15:37.390Z,12.48
2018-02-13T02:18:05.543Z,14.57
2018-02-13T02:20:33.670Z,14.48
2018-02-13T02:23:01.821Z,18.10
2018-02-13T02:25:29.950Z,11.00
2018-02-13T02:27:58.865Z,10.25
2018-02-13T02:30:26.986Z,10.82
2018-02-13T02:32:55.139Z,9.45
2018-02-13T02:35:23.260Z,10.93
2018-02-13T02:37:51.414Z,12.55
2018-02-13T02:40:19.543Z,13.15
2018-02-13T02:42:59.391Z,10.98
2018-02-13T02:45:27.510Z,15.02
2018-02-13T02:47:55.665Z,10.77
2018-02-13T02:50:23.791Z,12.55
2018-02-13T02:52:51.949Z,12.07
2018-02-13T02:55:20.848Z,16.20
2018-02-13T02:57:49.019Z,12.90
2018-02-13T03:00:17.927Z,16.10
2018-02-13T03:02:46.088Z,14.70
2018-02-13T03:05:14.986Z,16.87
2018-02-13T03:07:43.150Z,18.87
2018-02-13T03:10:12.058Z,15.05
2018-02-13T03:12:40.226Z,15.20
2018-02-13T03:15:08.355Z,14.27
2018-02-13T03:17:36.517Z,17.73
2018-02-13T03:20:04.648Z,18.70
2018-02-13T03:22:32.818Z,18.42
2018-02-13T03:25:00.963Z,14.75
2018-02-13T03:27:29.128Z,20.92
2018-02-13T03:29:57.260Z,19.02
2018-02-13T03:32:25.421Z,17.95
2018-02-13T03:34:53.572Z,25.42
2018-02-13T03:37:21.724Z,21.60
2018-02-13T03:39:49.889Z,23.83
2018-02-13T03:42:18.063Z,27.40
2018-02-13T03:44:46.198Z,20.90
2018-02-13T03:47:14.366Z,23.95
2018-02-13T03:49:42.509Z,19.40
2018-02-13T03:52:11.444Z,26.75
2018-02-13T03:54:39.576Z,20.30
2018-02-13T03:57:08.505Z,22.10
2018-02-13T03:59:36.641Z,25.35
2018-02-13T04:02:05.581Z,33.92
2018-02-13T04:04:33.714Z,22.13
2018-02-13T04:07:02.653Z,18.87
2018-02-13T04:09:30.793Z,25.23
2018-02-13T04:11:59.000Z,19.50
2018-02-13T04:14:27.114Z,18.15
2018-02-13T04:16:55.285Z,23.48
2018-02-13T04:19:24.195Z,19.15
2018-02-13T04:21:52.360Z,19.55
2018-02-13T04:24:21.261Z,19.80
2018-02-13T04:26:49.411Z,23.83
2018-02-13T04:29:17.574Z,22.58
2018-02-13T04:31:45.708Z,27.25
2018-02-13T04:34:13.881Z,23.10
2018-02-13T04:36:42.026Z,19.70
2018-02-13T04:39:10.958Z,23.08
2018-02-13T04:41:39.096Z,17.77
2018-02-13T04:44:07.261Z,23.73
2018-02-13T04:46:35.402Z,29.92
2018-02-13T04:49:03.565Z,21.05
2018-02-13T04:51:31.715Z,29.80
2018-02-13T04:53:59.869Z,19.17
2018-02-13T04:56:28.006Z,24.45
2018-02-13T04:58:56.169Z,30.83
2018-02-13T05:01:24.306Z,23.62
2018-02-13T05:03:52.469Z,20.45
2018-02-13T05:06:20.596Z,22.02
2018-02-13T05:08:48.768Z,17.08
2018-02-13T05:11:17.693Z,17.20
2018-02-13T05:13:45.860Z,25.25
2018-02-13T05:16:14.755Z,35.80
2018-02-13T05:18:42.922Z,21.90
2018-02-13T05:21:11.820Z,21.17
2018-02-13T05:23:39.985Z,22.45
2018-02-13T05:26:08.902Z,23.80
2018-02-13T05:28:37.069Z,18.55
2018-02-13T05:31:05.202Z,24.52
2018-02-13T05:33:33.370Z,23.10
2018-02-13T05:36:01.498Z,22.65
2018-02-13T05:38:29.663Z,24.02
2018-02-13T05:40:57.803Z,20.80
2018-02-13T05:43:25.970Z,30.33
2018-02-13T05:45:54.096Z,24.52
2018-02-13T05:48:22.263Z,25.52
2018-02-13T05:50:50.402Z,28.35
2018-02-13T05:53:18.565Z,25.60
2018-02-13T05:55:46.713Z,27.95
2018-02-13T05:58:14.874Z,31.05
2018-02-13T06:00:43.001Z,30.85
2018-02-13T06:03:11.169Z,26.98
2018-02-13T06:05:39.302Z,33.00
2018-02-13T06:08:07.466Z,32.38
2018-02-13T06:10:35.604Z,28.05
2018-02-13T06:13:03.774Z,33.45
2018-02-13T06:15:31.926Z,26.67
2018-02-13T06:18:00.093Z,30.33
2018-02-13T06:20:28.228Z,37.03
2018-02-13T06:22:56.434Z,33.55
2018-02-13T06:25:24.577Z,34.83
2018-02-13T06:27:52.745Z,36.20
2018-02-13T06:30:20.892Z,34.97
2018-02-13T06:32:49.084Z,32.67
2018-02-13T06:35:17.221Z,34.55
2018-02-13T06:37:45.383Z,35.58
2018-02-13T06:40:13.526Z,37.53
2018-02-13T06:42:41.686Z,36.25
2018-02-13T06:45:09.818Z,39.05
2018-02-13T06:47:38.002Z,36.83
2018-02-13T06:50:06.173Z,37.35
2018-02-13T06:52:34.303Z,39.53
2018-02-13T06:55:02.467Z,40.30
2018-02-13T06:57:30.602Z,35.15
2018-02-13T06:59:58.765Z,30.20
2018-02-13T07:02:27.672Z,32.60
2018-02-13T07:04:55.837Z,40.30
2018-02-13T07:07:24.733Z,39.58
2018-02-13T07:09:52.896Z,32.25
2018-02-13T07:12:21.819Z,36.63
2018-02-13T07:14:49.984Z,37.47
2018-02-13T07:17:18.116Z,35.90
2018-02-13T07:19:46.288Z,40.47
2018-02-13T07:22:14.417Z,28.15
2018-02-13T07:24:42.581Z,39.05
2018-02-13T07:27:10.718Z,32.35
2018-02-13T07:29:38.894Z,29.80
2018-02-13T07:32:07.056Z,29.08
2018-02-13T07:34:35.231Z,33.10
2018-02-13T07:37:03.357Z,29.98
2018-02-13T07:39:31.521Z,26.75
2018-02-13T07:41:59.661Z,25.98
2018-02-13T07:44:28.588Z,32.67
2018-02-13T07:46:56.725Z,28.65
2018-02-13T07:49:25.657Z,33.80
2018-02-13T07:51:53.794Z,36.67
2018-02-13T07:54:21.957Z,37.47
2018-02-13T07:56:50.093Z,30.37
2018-02-13T07:59:18.258Z,28.80
2018-02-13T08:01:46.398Z,34.45
2018-02-13T08:04:15.321Z,27.87
2018-02-13T08:06:43.466Z,34.40
2018-02-13T08:09:12.389Z,33.83
2018-02-13T08:11:40.527Z,36.97
2018-02-13T08:14:09.448Z,36.13
2018-02-13T08:16:37.588Z,28.33
2018-02-13T08:19:06.521Z,29.98
2018-02-13T08:21:34.664Z,24.30
2018-02-13T08:24:03.586Z,33.17
2018-02-13T08:26:31.709Z,29.87
2018-02-13T08:29:00.632Z,22.83
2018-02-13T08:31:28.807Z,24.75
2018-02-13T08:33:56.970Z,29.23
2018-02-13T08:36:25.104Z,35.13
2018-02-13T08:38:53.270Z,28.15
2018-02-13T08:41:21.403Z,28.83
2018-02-13T08:43:49.558Z,29.58
2018-02-13T08:46:17.697Z,31.70
2018-02-13T08:48:45.861Z,25.98
2018-02-13T08:51:13.992Z,26.12
2018-02-13T08:53:42.149Z,29.17
2018-02-13T08:56:10.288Z,26.02
2018-02-13T08:58:38.446Z,28.58
2018-02-13T09:01:06.571Z,27.52
2018-02-13T09:03:35.493Z,28.27
2018-02-13T09:06:03.620Z,28.12
2018-02-13T09:08:32.540Z,28.45
2018-02-13T09:11:00.672Z,29.63
2018-02-13T09:13:28.855Z,27.30
2018-02-13T09:15:56.984Z,28.55
2018-02-13T09:18:25.131Z,30.45
2018-02-13T09:20:53.291Z,27.08
2018-02-13T09:23:22.185Z,34.17
2018-02-13T09:25:50.354Z,31.55
2018-02-13T09:28:19.247Z,29.25
2018-02-13T09:30:47.404Z,30.15
2018-02-13T09:33:16.310Z,31.33
2018-02-13T09:35:44.460Z,26.80
2018-02-13T09:38:12.602Z,29.83
2018-02-13T09:40:40.767Z,32.40
2018-02-13T09:43:08.894Z,29.25
2018-02-13T09:45:37.045Z,28.65
2018-02-13T09:48:05.184Z,67.65
2018-02-13T09:50:33.344Z,28.85
2018-02-13T09:53:01.485Z,34.85
2018-02-13T09:55:29.654Z,30.58
2018-02-13T09:57:58.590Z,29.20
2018-02-13T10:00:26.734Z,29.83
2018-02-13T10:02:55.646Z,30.33
2018-02-13T10:05:23.779Z,27.48
2018-02-13T10:07:51.937Z,32.25
2018-02-13T10:10:20.074Z,32.13
2018-02-13T10:12:48.257Z,30.60
2018-02-13T10:15:16.385Z,32.05
2018-02-13T10:17:45.321Z,30.60
2018-02-13T10:20:13.473Z,28.65
2018-02-13T10:22:41.644Z,25.55
2018-02-13T10:25:09.778Z,30.40
2018-02-13T10:27:37.942Z,31.75
2018-02-13T10:30:06.074Z,37.53
2018-02-13T10:32:34.237Z,31.98
2018-02-13T10:35:02.414Z,30.20
2018-02-13T10:37:30.549Z,34.10
2018-02-13T10:39:58.709Z,27.10
2018-02-13T10:42:26.847Z,28.10
2018-02-13T10:44:55.009Z,28.98
2018-02-13T10:47:23.137Z,26.75
2018-02-13T10:49:51.345Z,27.90
2018-02-13T10:52:19.453Z,24.95
2018-02-13T10:54:47.651Z,27.00
2018-02-13T10:57:15.808Z,31.75
2018-02-13T10:59:43.962Z,25.85
2018-02-13T11:02:17.796Z,29.20
2018-02-13T11:04:45.957Z,27.20
2018-02-13T11:07:14.091Z,26.20
2018-02-13T11:09:42.242Z,27.40
2018-02-13T11:12:10.378Z,27.95
2018-02-13T11:14:38.539Z,23.95
2018-02-13T11:17:06.669Z,23.35
2018-02-13T11:19:34.830Z,22.30
2018-02-13T11:22:02.962Z,23.60
2018-02-13T11:24:31.119Z,23.95
2018-02-13T11:26:59.253Z,27.42
2018-02-13T11:29:27.421Z,20.73
2018-02-13T11:31:55.574Z,22.17
2018-02-13T11:34:23.793Z,24.85
2018-02-13T11:36:51.945Z,31.00
2018-02-13T11:39:20.130Z,24.75
2018-02-13T11:41:48.314Z,23.02
2018-02-13T11:44:16.453Z,21.77
2018-02-13T11:46:44.617Z,29.77
2018-02-13T11:49:12.772Z,26.05
2018-02-13T11:51:40.932Z,25.02
2018-02-13T11:54:09.074Z,24.02
2018-02-13T11:56:38.032Z,22.30
2018-02-13T11:59:06.164Z,22.08
2018-02-13T12:01:34.353Z,21.87
2018-02-13T12:04:02.486Z,23.70
2018-02-13T12:06:30.642Z,20.70
2018-02-13T12:08:58.781Z,27.35
2018-02-13T12:11:26.936Z,25.58
2018-02-13T12:13:55.074Z,24.60
2018-02-13T12:16:23.238Z,26.55
2018-02-13T12:18:51.373Z,26.60
2018-02-13T12:21:19.525Z,21.05
2018-02-13T12:23:47.677Z,22.60
2018-02-13T12:26:15.839Z,25.40
2018-02-13T12:28:43.966Z,24.73
2018-02-13T12:31:12.126Z,25.70
2018-02-13T12:33:40.256Z,20.58
2018-02-13T12:36:08.418Z,27.87
2018-02-13T12:38:36.545Z,25.40
2018-02-13T12:41:04.704Z,27.02
2018-02-13T12:43:32.833Z,19.73
2018-02-13T12:46:01.012Z,23.92
2018-02-13T12:48:29.152Z,19.40
2018-02-13T12:50:57.314Z,21.17
2018-02-13T12:53:25.444Z,17.42
2018-02-13T12:55:53.610Z,19.35
2018-02-13T12:58:21.752Z,16.10
2018-02-13T13:00:49.927Z,18.90
2018-02-13T13:03:18.070Z,24.02
2018-02-13T13:05:46.231Z,16.05
2018-02-13T13:08:15.127Z,12.35
2018-02-13T13:10:43.283Z,20.27
2018-02-13T13:13:11.438Z,12.32
2018-02-13T13:15:39.597Z,13.35
2018-02-13T13:18:07.729Z,15.27
2018-02-13T13:20:36.742Z,10.90
2018-02-13T13:23:04.864Z,14.55
2018-02-13T13:25:33.032Z,13.55
2018-02-13T13:28:01.165Z,10.98
2018-02-13T13:30:29.312Z,13.40
2018-02-13T13:32:57.440Z,9.05
2018-02-13T13:35:25.595Z,8.95
2018-02-13T13:37:53.722Z,11.93
2018-02-13T13:40:21.873Z,11.82
2018-02-13T13:42:50.006Z,16.20
2018-02-13T13:45:18.154Z,10.25
2018-02-13T13:47:46.285Z,9.50
2018-02-13T13:50:14.438Z,8.88
2018-02-13T13:52:42.562Z,9.65
2018-02-13T13:55:10.725Z,14.77
2018-02-13T13:57:39.621Z,14.40
2018-02-13T14:00:07.782Z,12.07
2018-02-13T14:02:35.915Z,12.02
2018-02-13T14:05:04.081Z,11.00
2018-02-13T14:07:32.209Z,16.17
2018-02-13T14:10:00.340Z,10.38
2018-02-13T14:12:28.492Z,14.25
2018-02-13T14:14:56.616Z,15.82
2018-02-13T14:17:26.563Z,17.83
2018-02-13T14:19:54.688Z,14.50
2018-02-13T14:22:22.847Z,12.43
2018-02-13T14:24:50.990Z,18.70
2018-02-13T14:27:19.153Z,14.60
2018-02-13T14:29:47.290Z,12.25
2018-02-13T14:32:15.433Z,13.55
2018-02-13T14:34:43.566Z,15.40
2018-02-13T14:37:12.498Z,11.50
2018-02-13T14:39:40.630Z,11.10
2018-02-13T14:42:09.550Z,12.52
2018-02-13T14:44:37.681Z,18.23
2018-02-13T14:47:05.845Z,18.90
2018-02-13T14:49:33.977Z,15.57
2018-02-13T14:52:02.157Z,12.43
2018-02-13T14:54:30.291Z,11.10
2018-02-13T14:56:59.208Z,15.95
2018-02-13T14:59:27.360Z,13.57
2018-02-13T15:01:56.301Z,16.35
2018-02-13T15:04:24.441Z,11.98
2018-02-13T15:06:52.597Z,12.90
2018-02-13T15:09:20.769Z,11.02
2018-02-13T15:11:48.957Z,11.68
2018-02-13T15:14:17.099Z,12.68
2018-02-13T15:16:45.251Z,13.70
2018-02-13T15:19:13.401Z,13.82
2018-02-13T15:21:41.665Z,11.85
2018-02-13T15:24:09.810Z,12.40
2018-02-13T15:26:37.974Z,12.40
2018-02-13T15:29:06.916Z,10.95
2018-02-13T15:31:35.987Z,9.27
2018-02-13T15:34:04.109Z,13.40
2018-02-13T15:36:32.258Z,10.45
2018-02-13T15:39:00.441Z,14.40
2018-02-13T15:41:28.590Z,11.45
2018-02-13T15:43:56.718Z,12.73
2018-02-13T15:46:24.906Z,10.88
2018-02-13T15:48:53.087Z,16.80
2018-02-13T15:51:21.222Z,13.80
2018-02-13T15:53:49.376Z,17.87
2018-02-13T15:56:17.589Z,14.05
2018-02-13T15:58:45.722Z,14.45
2018-02-13T16:01:13.882Z,10.90
2018-02-13T16:03:42.010Z,12.02
2018-02-13T16:06:10.178Z,15.52
2018-02-13T16:08:38.312Z,9.70
2018-02-13T16:11:06.479Z,9.68
2018-02-13T16:13:34.598Z,12.82
2018-02-13T16:16:02.745Z,12.75
2018-02-13T16:18:30.868Z,7.87
2018-02-13T16:20:59.899Z,12.57
2018-02-13T16:23:28.019Z,8.38
2018-02-13T16:25:56.169Z,10.40
2018-02-13T16:28:24.297Z,8.40
2018-02-13T16:30:52.465Z,11.38
2018-02-13T16:33:20.588Z,17.70
2018-02-13T16:35:48.713Z,14.65
2018-02-13T16:38:16.877Z,9.77
2018-02-13T16:40:44.996Z,14.18
2018-02-13T16:43:13.146Z,11.52
2018-02-13T16:45:41.269Z,12.27
2018-02-13T16:48:09.430Z,11.88
2018-02-13T16:50:37.558Z,18.70
2018-02-13T16:53:05.715Z,17.50
2018-02-13T16:55:34.611Z,11.38
2018-02-13T16:58:02.769Z,9.68
2018-02-13T17:00:31.656Z,14.90
2018-02-13T17:02:59.817Z,10.20
2018-02-13T17:05:27.965Z,12.57
2018-02-13T17:07:56.122Z,16.80
2018-02-13T17:10:24.266Z,13.85
2018-02-13T17:12:52.425Z,21.62
2018-02-13T17:15:21.330Z,15.05
2018-02-13T17:17:49.492Z,17.20
2018-02-13T17:20:18.381Z,15.07
2018-02-13T17:22:46.560Z,13.35
2018-02-13T17:25:15.461Z,25.10
2018-02-13T17:27:44.380Z,20.95
2018-02-13T17:30:12.513Z,22.02
2018-02-13T17:32:41.441Z,16.37
2018-02-13T17:35:10.024Z,19.17
2018-02-13T17:37:38.215Z,12.40
2018-02-13T17:40:06.348Z,15.43
2018-02-13T17:42:34.520Z,13.13
2018-02-13T17:45:04.039Z,14.85
2018-02-13T17:47:33.325Z,12.90
2018-02-13T17:50:01.460Z,16.70
2018-02-13T17:52:29.612Z,20.55
2018-02-13T17:54:58.912Z,16.42
2018-02-13T17:57:27.466Z,15.75
2018-02-13T17:59:55.890Z,16.62
2018-02-13T18:02:24.602Z,23.70
2018-02-13T18:04:52.895Z,21.77
2018-02-13T18:07:21.372Z,18.62
2018-02-13T18:09:49.716Z,13.68
2018-02-13T18:12:19.005Z,18.15
2018-02-13T18:14:47.375Z,18.67
2018-02-13T18:17:15.726Z,18.10
2018-02-13T18:19:43.871Z,19.80
2018-02-13T18:22:12.812Z,16.98
2018-02-13T18:24:40.959Z,20.02
2018-02-13T18:27:09.129Z,21.27
2018-02-13T18:29:37.384Z,19.30
2018-02-13T18:32:06.500Z,18.90
2018-02-13T18:34:34.809Z,21.10
2018-02-13T18:37:02.989Z,22.87
2018-02-13T18:39:32.335Z,21.02
2018-02-13T18:42:00.690Z,18.75
2018-02-13T18:44:29.093Z,17.20
2018-02-13T18:46:57.895Z,26.02
2018-02-13T18:49:26.819Z,20.80
2018-02-13T18:51:55.128Z,23.17
2018-02-13T18:54:23.625Z,19.40
2018-02-13T18:56:52.294Z,19.55
2018-02-13T18:59:21.151Z,25.48
2018-02-13T19:01:49.392Z,23.40
2018-02-13T19:04:18.305Z,21.05
2018-02-13T19:06:46.468Z,22.33
2018-02-13T19:09:14.631Z,20.70
2018-02-13T19:11:43.176Z,20.60
2018-02-13T19:14:11.579Z,21.62
2018-02-13T19:16:39.785Z,32.70
2018-02-13T19:19:08.001Z,27.58
2018-02-13T19:21:36.156Z,23.45
2018-02-13T19:24:04.397Z,28.85
2018-02-13T19:26:32.621Z,23.90
2018-02-13T19:29:00.813Z,17.15
2018-02-13T19:31:29.155Z,24.33
2018-02-13T19:33:58.506Z,23.30
2018-02-13T19:36:26.717Z,21.50
2018-02-13T19:38:54.909Z,22.52
2018-02-13T19:41:23.236Z,26.58
2018-02-13T19:43:52.214Z,22.70
2018-02-13T19:46:20.563Z,24.05
2018-02-13T19:48:48.750Z,23.25
2018-02-13T19:51:17.033Z,20.60
2018-02-13T19:53:45.220Z,20.35
2018-02-13T19:56:13.375Z,19.75
2018-02-13T19:58:41.552Z,31.42
2018-02-13T20:01:09.729Z,27.58
2018-02-13T20:03:37.893Z,23.20
2018-02-13T20:06:06.043Z,24.67
2018-02-13T20:08:34.273Z,22.05
2018-02-13T20:11:02.414Z,22.45
2018-02-13T20:13:30.626Z,25.70
2018-02-13T20:15:58.807Z,28.55
2018-02-13T20:18:26.967Z,24.40
2018-02-13T20:20:55.142Z,26.65
2018-02-13T20:23:23.351Z,26.60
2018-02-13T20:25:51.504Z,27.20
2018-02-13T20:28:20.453Z,25.08
2018-02-13T20:30:48.601Z,27.50
2018-02-13T20:33:16.774Z,24.17
2018-02-13T20:35:44.908Z,26.20
2018-02-13T20:38:13.071Z,29.63
2018-02-13T20:40:41.229Z,32.47
2018-02-13T20:43:09.400Z,28.80
2018-02-13T20:45:37.540Z,28.10
2018-02-13T20:48:05.723Z,24.55
2018-02-13T20:50:33.857Z,28.17
2018-02-13T20:53:02.032Z,25.65
2018-02-13T20:55:30.170Z,25.60
2018-02-13T20:57:58.363Z,26.27
2018-02-13T21:00:26.501Z,26.33
2018-02-13T21:02:54.674Z,23.67
2018-02-13T21:05:22.817Z,25.00
2018-02-13T21:07:50.984Z,31.80
2018-02-13T21:10:19.133Z,25.92
2018-02-13T21:12:47.292Z,29.17
2018-02-13T21:15:15.433Z,36.35
2018-02-13T21:17:43.617Z,24.52
2018-02-13T21:20:11.823Z,29.27
2018-02-13T21:22:40.757Z,34.85
2018-02-13T21:25:08.925Z,27.48
2018-02-13T21:27:37.151Z,33.38
2018-02-13T21:30:05.285Z,32.33
2018-02-13T21:32:33.478Z,27.23
2018-02-13T21:35:01.649Z,35.78
2018-02-13T21:37:29.790Z,25.52
2018-02-13T21:39:57.973Z,22.37
2018-02-13T21:42:26.103Z,23.92
2018-02-13T21:44:54.265Z,31.83
2018-02-13T21:47:22.406Z,24.40
2018-02-13T21:49:50.728Z,24.48
2018-02-13T21:52:18.908Z,32.60
2018-02-13T21:54:47.865Z,28.42
2018-02-13T21:57:16.023Z,29.65
2018-02-13T21:59:44.193Z,25.50
2018-02-13T22:02:12.346Z,26.40
2018-02-13T22:04:40.526Z,25.25
2018-02-13T22:07:08.665Z,32.22
2018-02-13T22:09:36.850Z,33.35
2018-02-13T22:12:04.988Z,23.17
2018-02-13T22:14:33.162Z,33.55
2018-02-13T22:17:01.299Z,31.20
2018-02-13T22:19:29.467Z,22.33
2018-02-13T22:21:58.515Z,32.70
2018-02-13T22:24:26.682Z,26.33
2018-02-13T22:26:54.867Z,27.20
2018-02-13T22:29:23.041Z,31.98
2018-02-13T22:31:51.181Z,34.25
2018-02-13T22:34:19.370Z,34.03
2018-02-13T22:36:47.518Z,29.80
2018-02-13T22:39:15.731Z,33.08
2018-02-13T22:41:43.873Z,31.08
2018-02-13T22:44:12.049Z,25.35
2018-02-13T22:46:40.186Z,26.45
2018-02-13T22:49:09.110Z,30.62
2018-02-13T22:51:37.268Z,33.95
2018-02-13T22:54:05.436Z,31.30
2018-02-13T22:56:33.581Z,27.42
2018-02-13T22:59:01.777Z,35.38
2018-02-13T23:01:30.685Z,32.17
2018-02-13T23:03:58.861Z,24.73
2018-02-13T23:06:27.001Z,28.70
2018-02-13T23:08:55.169Z,25.48
2018-02-13T23:11:23.316Z,25.80
2018-02-13T23:13:51.487Z,31.02
2018-02-13T23:16:19.624Z,26.12
2018-02-13T23:18:47.794Z,28.50
2018-02-13T23:21:15.944Z,25.42
2018-02-13T23:23:44.887Z,28.60
2018-02-13T23:26:13.031Z,24.27
2018-02-13T23:28:41.194Z,23.15
2018-02-13T23:31:09.338Z,27.10
2018-02-13T23:33:37.508Z,25.37
2018-02-13T23:36:05.728Z,31.95
2018-02-13T23:38:33.937Z,29.70
2018-02-13T23:41:02.091Z,27.70
2018-02-13T23:43:30.314Z,30.75
2018-02-13T23:45:58.567Z,25.73
2018-02-13T23:48:26.717Z,26.87
2018-02-13T23:50:54.852Z,26.77
2018-02-13T23:53:23.012Z,29.30
2018-02-13T23:55:51.151Z,24.70
2018-02-13T23:58:19.309Z,27.58
